createdAt,value
2022-11-09T00:00:52.510Z,4.90
2022-11-09T00:03:20.180Z,4.90
2022-11-09T00:05:56.531Z,4.90
2022-11-09T00:08:23.732Z,4.90
2022-11-09T00:10:50.962Z,4.90
2022-11-09T00:13:18.376Z,4.90
2022-11-09T00:15:45.775Z,5.00
2022-11-09T00:18:12.908Z,5.00
2022-11-09T00:20:44.522Z,5.00
2022-11-09T00:23:14.352Z,5.00
2022-11-09T00:25:41.338Z,5.00
2022-11-09T00:28:08.557Z,5.00
2022-11-09T00:30:35.676Z,5.00
2022-11-09T00:33:02.968Z,5.00
2022-11-09T00:35:30.192Z,5.00
2022-11-09T00:37:57.504Z,5.00
2022-11-09T00:40:24.690Z,5.10
2022-11-09T00:42:52.230Z,5.00
2022-11-09T00:45:19.367Z,5.00
2022-11-09T00:47:46.567Z,4.90
2022-11-09T00:50:13.649Z,4.90
2022-11-09T00:52:40.706Z,4.90
2022-11-09T00:55:08.184Z,4.90
2022-11-09T00:57:35.254Z,4.90
2022-11-09T01:00:02.759Z,4.80
2022-11-09T01:02:30.841Z,4.80
2022-11-09T01:04:58.216Z,4.70
2022-11-09T01:07:26.238Z,4.70
2022-11-09T01:09:53.359Z,4.70
2022-11-09T01:12:23.757Z,4.60
2022-11-09T01:14:51.701Z,4.70
2022-11-09T01:17:18.844Z,4.60
2022-11-09T01:19:47.391Z,4.60
2022-11-09T01:22:16.019Z,4.60
2022-11-09T01:24:43.231Z,4.60
2022-11-09T01:27:10.475Z,4.50
2022-11-09T01:29:38.014Z,4.50
2022-11-09T01:32:05.676Z,4.50
2022-11-09T01:34:32.996Z,4.50
2022-11-09T01:37:02.832Z,4.50
2022-11-09T01:39:30.655Z,4.60
2022-11-09T01:41:57.723Z,4.60
2022-11-09T01:44:27.806Z,4.50
2022-11-09T01:46:57.959Z,4.50
2022-11-09T01:49:27.157Z,4.50
2022-11-09T01:52:03.789Z,4.50
2022-11-09T01:54:36.424Z,4.60
2022-11-09T01:57:08.004Z,4.60
2022-11-09T01:59:41.466Z,4.60
2022-11-09T02:02:09.387Z,4.60
2022-11-09T02:04:47.545Z,4.60
2022-11-09T02:07:15.316Z,4.50
2022-11-09T02:10:04.330Z,4.60
2022-11-09T02:12:34.718Z,4.50
2022-11-09T02:15:06.214Z,4.60
2022-11-09T02:17:35.072Z,4.50
2022-11-09T02:20:08.178Z,4.50
2022-11-09T02:22:36.129Z,4.50
2022-11-09T02:25:05.795Z,4.50
2022-11-09T02:27:33.034Z,4.40
2022-11-09T02:30:01.319Z,4.40
2022-11-09T02:32:30.769Z,4.40
2022-11-09T02:34:59.388Z,4.40
2022-11-09T02:37:28.719Z,4.30
2022-11-09T02:39:58.480Z,4.40
2022-11-09T02:42:26.046Z,4.40
2022-11-09T02:44:58.551Z,4.30
2022-11-09T02:47:25.949Z,4.30
2022-11-09T02:49:53.402Z,4.30
2022-11-09T02:52:20.516Z,4.30
2022-11-09T02:54:47.970Z,4.30
2022-11-09T02:57:15.522Z,4.30
2022-11-09T02:59:43.442Z,4.30
2022-11-09T03:02:11.643Z,4.20
2022-11-09T03:04:40.044Z,4.20
2022-11-09T03:07:08.830Z,4.20
2022-11-09T03:09:37.497Z,4.20
2022-11-09T03:12:24.751Z,4.10
2022-11-09T03:14:52.379Z,4.20
2022-11-09T03:17:19.962Z,4.10
2022-11-09T03:19:47.295Z,4.10
2022-11-09T03:22:15.445Z,4.20
2022-11-09T03:24:45.782Z,4.20
2022-11-09T03:27:14.617Z,4.10
2022-11-09T03:29:42.295Z,4.10
2022-11-09T03:32:10.290Z,4.10
2022-11-09T03:34:37.460Z,4.20
2022-11-09T03:37:05.377Z,4.20
2022-11-09T03:39:33.541Z,4.20
2022-11-09T03:42:00.780Z,4.20
2022-11-09T03:44:27.884Z,4.20
2022-11-09T03:46:55.033Z,4.10
2022-11-09T03:49:23.918Z,4.20
2022-11-09T03:51:51.721Z,4.20
2022-11-09T03:54:18.791Z,4.20
2022-11-09T03:56:46.230Z,4.20
2022-11-09T03:59:13.263Z,4.20
2022-11-09T04:01:40.468Z,4.20
2022-11-09T04:04:07.637Z,4.20
2022-11-09T04:06:34.996Z,4.20
2022-11-09T04:09:02.321Z,4.20
2022-11-09T04:11:29.337Z,4.20
2022-11-09T04:13:56.545Z,4.20
2022-11-09T04:16:23.701Z,4.20
2022-11-09T04:18:50.792Z,4.20
2022-11-09T04:21:22.778Z,4.20
2022-11-09T04:23:51.192Z,4.20
2022-11-09T04:26:18.251Z,4.10
2022-11-09T04:28:45.384Z,4.10
2022-11-09T04:31:12.439Z,4.10
2022-11-09T04:33:39.499Z,4.10
2022-11-09T04:36:06.946Z,4.10
2022-11-09T04:38:34.082Z,4.10
2022-11-09T04:41:02.167Z,4.20
2022-11-09T04:43:29.379Z,4.20
2022-11-09T04:46:00.878Z,4.20
2022-11-09T04:48:28.710Z,4.20
2022-11-09T04:51:01.435Z,4.20
2022-11-09T04:53:29.410Z,4.20
2022-11-09T04:55:57.532Z,4.20
2022-11-09T04:58:25.243Z,4.20
2022-11-09T05:00:53.036Z,4.10
2022-11-09T05:03:20.745Z,4.10
2022-11-09T05:05:48.722Z,4.10
2022-11-09T05:08:16.034Z,4.10
2022-11-09T05:10:43.119Z,4.00
2022-11-09T05:13:12.216Z,4.10
2022-11-09T05:15:40.233Z,4.10
2022-11-09T05:18:08.178Z,4.00
2022-11-09T05:20:36.693Z,4.10
2022-11-09T05:23:24.270Z,4.10
2022-11-09T05:25:51.421Z,4.10
2022-11-09T05:28:18.611Z,4.10
2022-11-09T05:30:45.663Z,4.10
2022-11-09T05:33:12.904Z,4.00
2022-11-09T05:35:40.032Z,4.10
2022-11-09T05:38:07.102Z,4.10
2022-11-09T05:40:34.750Z,4.00
2022-11-09T05:43:01.900Z,4.10
2022-11-09T05:45:42.508Z,4.10
2022-11-09T05:48:11.794Z,4.10
2022-11-09T05:50:39.692Z,4.10
2022-11-09T05:53:15.295Z,4.10
2022-11-09T05:55:42.697Z,4.20
2022-11-09T05:58:10.244Z,4.20
2022-11-09T06:00:37.522Z,4.30
2022-11-09T06:03:10.891Z,4.30
2022-11-09T06:05:40.001Z,4.30
2022-11-09T06:08:10.635Z,4.30
2022-11-09T06:10:37.939Z,4.30
2022-11-09T06:13:05.508Z,4.40
2022-11-09T06:15:32.678Z,4.30
2022-11-09T06:18:00.051Z,4.30
2022-11-09T06:20:28.370Z,4.30
2022-11-09T06:23:02.495Z,4.40
2022-11-09T06:25:32.006Z,4.40
2022-11-09T06:27:59.417Z,4.50
2022-11-09T06:30:26.647Z,4.50
2022-11-09T06:32:59.208Z,4.60
2022-11-09T06:35:26.426Z,4.60
2022-11-09T06:37:57.909Z,4.70
2022-11-09T06:40:25.197Z,4.70
2022-11-09T06:42:52.759Z,4.70
2022-11-09T06:45:19.855Z,4.80
2022-11-09T06:47:46.921Z,4.70
2022-11-09T06:50:13.970Z,4.70
2022-11-09T06:52:41.117Z,4.80
2022-11-09T06:55:08.857Z,4.80
2022-11-09T06:57:35.968Z,4.90
2022-11-09T07:00:05.346Z,4.90
2022-11-09T07:02:33.718Z,4.90
2022-11-09T07:05:00.719Z,5.00
2022-11-09T07:07:28.478Z,5.00
2022-11-09T07:09:56.036Z,5.10
2022-11-09T07:12:23.367Z,5.10
2022-11-09T07:14:50.466Z,5.10
2022-11-09T07:17:17.860Z,5.10
2022-11-09T07:19:44.892Z,5.10
2022-11-09T07:22:12.394Z,5.10
2022-11-09T07:24:39.435Z,5.10
2022-11-09T07:27:06.837Z,5.10
2022-11-09T07:29:33.967Z,5.20
2022-11-09T07:32:01.070Z,5.20
2022-11-09T07:34:28.110Z,5.20
2022-11-09T07:36:55.583Z,5.30
2022-11-09T07:39:22.877Z,5.30
2022-11-09T07:41:50.540Z,5.40
2022-11-09T07:44:18.843Z,5.50
2022-11-09T07:46:48.919Z,5.50
2022-11-09T07:49:17.322Z,5.60
2022-11-09T07:51:44.647Z,5.70
2022-11-09T07:54:12.093Z,5.80
2022-11-09T07:56:39.216Z,5.90
2022-11-09T07:59:06.234Z,5.90
2022-11-09T08:01:33.391Z,5.90
2022-11-09T08:04:02.148Z,6.00
2022-11-09T08:06:29.446Z,6.00
2022-11-09T08:08:57.898Z,6.20
2022-11-09T08:11:25.431Z,6.20
2022-11-09T08:13:53.410Z,6.30
2022-11-09T08:16:20.714Z,6.30
2022-11-09T08:18:50.902Z,6.40
2022-11-09T08:21:19.054Z,6.30
2022-11-09T08:23:47.964Z,6.40
2022-11-09T08:26:16.233Z,6.40
2022-11-09T08:28:43.686Z,6.40
2022-11-09T08:31:11.437Z,6.50
2022-11-09T08:33:41.431Z,6.60
2022-11-09T08:36:10.225Z,6.70
2022-11-09T08:38:37.330Z,6.70
2022-11-09T08:41:08.121Z,6.80
2022-11-09T08:43:38.071Z,6.80
2022-11-09T08:46:05.551Z,6.90
2022-11-09T08:48:32.761Z,6.90
2022-11-09T08:51:00.559Z,7.00
2022-11-09T08:53:29.296Z,6.90
2022-11-09T08:55:56.674Z,7.00
2022-11-09T08:58:24.495Z,7.00
2022-11-09T09:00:51.747Z,7.10
2022-11-09T09:03:18.884Z,7.20
2022-11-09T09:05:46.020Z,7.20
2022-11-09T09:08:15.435Z,7.30
2022-11-09T09:10:43.184Z,7.30
2022-11-09T09:13:10.425Z,7.40
2022-11-09T09:15:37.658Z,7.50
2022-11-09T09:18:05.254Z,7.60
2022-11-09T09:20:32.779Z,7.60
2022-11-09T09:23:00.959Z,7.70
2022-11-09T09:25:28.136Z,7.70
2022-11-09T09:27:55.332Z,7.70
2022-11-09T09:30:23.012Z,7.70
2022-11-09T09:32:50.394Z,7.70
2022-11-09T09:35:18.050Z,7.80
2022-11-09T09:37:45.239Z,7.90
2022-11-09T09:40:25.063Z,7.90
2022-11-09T09:42:54.238Z,7.90
2022-11-09T09:45:28.237Z,7.90
2022-11-09T09:47:57.380Z,7.90
2022-11-09T09:50:30.718Z,7.90
2022-11-09T09:53:24.848Z,7.90
2022-11-09T09:56:03.726Z,8.10
2022-11-09T09:58:34.555Z,8.20
2022-11-09T10:01:20.474Z,8.30
2022-11-09T10:03:48.635Z,8.30
2022-11-09T10:06:46.012Z,8.40
2022-11-09T10:09:23.978Z,8.50
2022-11-09T10:12:31.723Z,8.60
2022-11-09T10:15:13.321Z,8.60
2022-11-09T10:18:02.220Z,8.60
2022-11-09T10:20:52.683Z,8.70
2022-11-09T10:23:34.837Z,8.70
2022-11-09T10:26:15.804Z,8.70
2022-11-09T10:29:14.366Z,8.80
2022-11-09T10:31:34.540Z,8.90
2022-11-09T10:34:15.058Z,8.90
2022-11-09T10:36:50.182Z,9.10
2022-11-09T10:39:17.834Z,9.20
2022-11-09T10:42:04.862Z,9.30
2022-11-09T10:44:51.893Z,9.40
2022-11-09T10:47:55.141Z,9.40
2022-11-09T10:50:49.164Z,9.50
2022-11-09T10:53:36.097Z,9.40
2022-11-09T10:56:23.238Z,9.30
2022-11-09T10:59:30.305Z,9.40
2022-11-09T11:02:41.727Z,9.40
2022-11-09T11:05:31.471Z,9.50
2022-11-09T11:08:25.245Z,9.60
2022-11-09T11:11:33.173Z,9.50
2022-11-09T11:14:43.201Z,9.60
2022-11-09T11:17:36.812Z,9.60
2022-11-09T11:20:33.028Z,9.70
2022-11-09T11:23:23.132Z,9.70
2022-11-09T11:26:30.513Z,9.80
2022-11-09T11:29:21.936Z,9.90
2022-11-09T11:32:15.233Z,10.00
2022-11-09T11:35:06.474Z,10.20
2022-11-09T11:38:10.595Z,10.20
2022-11-09T11:40:57.565Z,10.30
2022-11-09T11:43:53.471Z,10.30
2022-11-09T11:46:56.550Z,10.30
2022-11-09T11:50:17.389Z,10.30
2022-11-09T11:53:31.899Z,10.40
2022-11-09T11:56:22.973Z,10.40
2022-11-09T11:59:22.334Z,10.40
2022-11-09T12:02:21.507Z,10.50
2022-11-09T12:05:36.112Z,10.50
2022-11-09T12:08:26.022Z,10.60
2022-11-09T12:11:36.299Z,10.70
2022-11-09T12:14:51.738Z,10.70
2022-11-09T12:17:55.641Z,10.70
2022-11-09T12:20:55.193Z,10.80
2022-11-09T12:24:08.463Z,10.80
2022-11-09T12:27:31.557Z,10.90
2022-11-09T12:30:24.336Z,10.90
2022-11-09T12:33:42.973Z,11.00
2022-11-09T12:36:36.089Z,11.00
2022-11-09T12:39:36.704Z,11.00
2022-11-09T12:42:34.273Z,11.10
2022-11-09T12:45:39.884Z,11.20
2022-11-09T12:48:31.294Z,11.40
2022-11-09T12:51:19.907Z,11.60
2022-11-09T12:54:11.765Z,11.80
2022-11-09T12:57:05.045Z,11.70
2022-11-09T12:59:55.161Z,11.90
2022-11-09T13:02:52.415Z,11.90
2022-11-09T13:05:39.999Z,12.00
2022-11-09T13:08:30.713Z,11.90
2022-11-09T13:11:22.000Z,11.90
2022-11-09T13:14:27.375Z,11.80
2022-11-09T13:17:25.589Z,11.90
2022-11-09T13:24:02.070Z,11.90
2022-11-09T13:26:50.984Z,12.00
2022-11-09T13:29:41.240Z,12.10
2022-11-09T13:32:30.759Z,12.10
2022-11-09T13:35:41.326Z,12.10
2022-11-09T13:38:31.063Z,12.10
2022-11-09T13:41:34.446Z,12.10
2022-11-09T13:44:26.422Z,12.00
2022-11-09T13:47:36.669Z,11.80
2022-11-09T13:50:26.880Z,11.80
2022-11-09T13:53:37.513Z,11.80
2022-11-09T13:56:33.080Z,11.80
2022-11-09T13:59:29.238Z,11.70
2022-11-09T14:02:21.068Z,11.70
2022-11-09T14:05:30.897Z,11.70
2022-11-09T14:08:38.995Z,11.70
2022-11-09T14:11:48.445Z,11.60
2022-11-09T14:15:02.777Z,11.50
2022-11-09T14:18:13.833Z,11.40
2022-11-09T14:21:17.034Z,11.30
2022-11-09T14:24:16.155Z,11.20
2022-11-09T14:27:12.218Z,11.10
2022-11-09T14:30:02.610Z,11.00
2022-11-09T14:32:54.355Z,10.90
2022-11-09T14:35:41.743Z,10.80
2022-11-09T14:38:33.455Z,10.70
2022-11-09T14:41:22.991Z,10.70
2022-11-09T14:44:20.824Z,10.60
2022-11-09T14:47:17.320Z,10.60
2022-11-09T14:50:05.288Z,10.50
2022-11-09T14:52:54.707Z,10.40
2022-11-09T14:55:42.335Z,10.40
2022-11-09T14:58:32.663Z,10.30
2022-11-09T15:01:21.699Z,10.10
2022-11-09T15:04:11.537Z,10.00
2022-11-09T15:07:03.117Z,10.00
2022-11-09T15:09:54.871Z,9.80
2022-11-09T15:12:48.905Z,9.70
2022-11-09T15:15:36.402Z,9.60
2022-11-09T15:18:34.055Z,9.50
2022-11-09T15:21:24.985Z,9.30
2022-11-09T15:24:12.469Z,9.30
2022-11-09T15:26:59.553Z,9.10
2022-11-09T15:29:46.739Z,9.00
2022-11-09T15:32:38.042Z,8.90
2022-11-09T15:35:28.412Z,8.80
2022-11-09T15:38:34.626Z,8.70
2022-11-09T15:41:23.662Z,8.60
2022-11-09T15:44:13.455Z,8.50
2022-11-09T15:47:00.990Z,8.40
2022-11-09T15:49:48.598Z,8.30
2022-11-09T15:52:35.658Z,8.30
2022-11-09T15:55:25.623Z,8.20
2022-11-09T15:58:15.272Z,8.10
2022-11-09T16:01:02.571Z,8.10
2022-11-09T16:03:49.698Z,8.00
2022-11-09T16:06:45.228Z,7.90
2022-11-09T16:09:33.661Z,7.90
2022-11-09T16:12:21.212Z,7.80
2022-11-09T16:15:09.204Z,7.70
2022-11-09T16:17:56.990Z,7.70
2022-11-09T16:20:43.916Z,7.60
2022-11-09T16:23:31.106Z,7.50
2022-11-09T16:26:19.997Z,7.50
2022-11-09T16:29:07.169Z,7.40
2022-11-09T16:31:54.674Z,7.30
2022-11-09T16:34:41.888Z,7.30
2022-11-09T16:37:32.998Z,7.30
2022-11-09T16:40:20.157Z,7.30
2022-11-09T16:43:07.294Z,7.40
2022-11-09T16:45:54.396Z,7.40
2022-11-09T16:48:41.439Z,7.50
2022-11-09T16:51:28.665Z,7.50
2022-11-09T16:54:15.702Z,7.60
2022-11-09T16:57:02.849Z,7.60
2022-11-09T16:59:50.067Z,7.70
2022-11-09T17:02:37.171Z,7.70
2022-11-09T17:05:24.174Z,7.70
2022-11-09T17:08:18.372Z,7.70
2022-11-09T17:11:08.480Z,7.70
2022-11-09T17:13:58.166Z,7.70
2022-11-09T17:16:47.245Z,7.60
2022-11-09T17:19:36.115Z,7.60
2022-11-09T17:22:23.345Z,7.60
2022-11-09T17:25:10.474Z,7.60
2022-11-09T17:27:57.488Z,7.70
2022-11-09T17:30:44.616Z,7.70
2022-11-09T17:33:33.918Z,7.70
2022-11-09T17:36:35.376Z,7.80
2022-11-09T17:39:28.245Z,7.80
2022-11-09T17:42:15.467Z,7.80
2022-11-09T17:45:02.519Z,7.90
2022-11-09T17:47:49.728Z,7.90
2022-11-09T17:50:37.619Z,7.80
2022-11-09T17:53:25.222Z,7.80
2022-11-09T17:56:12.989Z,7.80
2022-11-09T17:59:00.458Z,7.80
2022-11-09T18:01:47.507Z,7.80
2022-11-09T18:04:34.689Z,7.80
2022-11-09T18:07:21.964Z,7.70
2022-11-09T18:10:10.056Z,7.80
2022-11-09T18:12:57.117Z,7.80
2022-11-09T18:15:44.264Z,7.80
2022-11-09T18:18:31.365Z,7.80
2022-11-09T18:21:20.126Z,7.80
2022-11-09T18:24:07.650Z,7.80
2022-11-09T18:26:54.948Z,7.80
2022-11-09T18:29:42.499Z,7.80
2022-11-09T18:32:30.447Z,7.80
2022-11-09T18:35:17.638Z,7.80
2022-11-09T18:38:04.646Z,7.80
2022-11-09T18:41:01.798Z,7.80
2022-11-09T18:43:50.016Z,7.80
2022-11-09T18:46:37.282Z,7.80
2022-11-09T18:49:26.810Z,7.80
2022-11-09T18:52:14.066Z,7.90
2022-11-09T18:55:01.264Z,7.90
2022-11-09T18:57:48.331Z,7.80
2022-11-09T19:00:35.654Z,7.80
2022-11-09T19:03:22.666Z,7.80
2022-11-09T19:06:12.961Z,7.80
2022-11-09T19:09:19.927Z,7.80
2022-11-09T19:12:08.675Z,7.80
2022-11-09T19:14:55.671Z,7.80
2022-11-09T19:17:42.826Z,7.80
2022-11-09T19:20:30.065Z,7.90
2022-11-09T19:23:17.234Z,7.90
2022-11-09T19:26:04.283Z,7.80
2022-11-09T19:28:51.808Z,7.80
2022-11-09T19:31:43.193Z,7.80
2022-11-09T19:34:30.828Z,7.90
2022-11-09T19:37:18.063Z,7.80
2022-11-09T19:40:05.756Z,7.90
2022-11-09T19:42:52.818Z,7.90
2022-11-09T19:45:40.904Z,7.80
2022-11-09T19:48:28.708Z,7.80
2022-11-09T19:51:16.670Z,7.80
2022-11-09T19:54:05.023Z,7.70
2022-11-09T19:56:52.228Z,7.70
2022-11-09T19:59:39.254Z,7.70
2022-11-09T20:02:26.772Z,7.70
2022-11-09T20:05:13.864Z,7.70
2022-11-09T20:08:03.702Z,7.70
2022-11-09T20:10:51.059Z,7.80
2022-11-09T20:13:39.398Z,7.80
2022-11-09T20:16:27.198Z,7.80
2022-11-09T20:19:14.740Z,7.80
2022-11-09T20:22:01.763Z,7.70
2022-11-09T20:24:49.656Z,7.70
2022-11-09T20:27:36.856Z,7.60
2022-11-09T20:30:24.088Z,7.70
2022-11-09T20:33:11.232Z,7.70
2022-11-09T20:35:58.172Z,7.70
2022-11-09T20:38:45.510Z,7.70
2022-11-09T20:41:33.355Z,7.60
2022-11-09T20:44:20.539Z,7.70
2022-11-09T20:47:07.587Z,7.60
2022-11-09T20:49:54.596Z,7.60
2022-11-09T20:52:42.168Z,7.60
2022-11-09T20:55:29.511Z,7.60
2022-11-09T20:58:17.012Z,7.60
2022-11-09T21:01:13.933Z,7.60
2022-11-09T21:04:01.269Z,7.60
2022-11-09T21:06:48.484Z,7.60
2022-11-09T21:09:36.327Z,7.60
2022-11-09T21:12:25.178Z,7.60
2022-11-09T21:15:15.516Z,7.60
2022-11-09T21:18:02.724Z,7.60
2022-11-09T21:20:49.676Z,7.50
2022-11-09T21:23:57.591Z,7.60
2022-11-09T21:27:04.479Z,7.50
2022-11-09T21:29:52.077Z,7.60
2022-11-09T21:32:39.186Z,7.60
2022-11-09T21:35:28.782Z,7.60
2022-11-09T21:38:15.844Z,7.60
2022-11-09T21:41:24.950Z,7.60
2022-11-09T21:44:12.985Z,7.50
2022-11-09T21:47:01.194Z,7.60
2022-11-09T21:49:48.263Z,7.60
2022-11-09T21:52:35.558Z,7.50
2022-11-09T21:55:22.740Z,7.50
2022-11-09T21:58:09.767Z,7.50
2022-11-09T22:01:06.541Z,7.50
2022-11-09T22:03:53.978Z,7.50
2022-11-09T22:06:43.400Z,7.50
2022-11-09T22:09:50.459Z,7.40
2022-11-09T22:12:58.149Z,7.50
2022-11-09T22:16:05.048Z,7.50
2022-11-09T22:19:12.497Z,7.50
2022-11-09T22:21:59.548Z,7.50
2022-11-09T22:24:46.690Z,7.50
2022-11-09T22:27:34.180Z,7.50
2022-11-09T22:30:21.207Z,7.50
2022-11-09T22:33:08.242Z,7.40
2022-11-09T22:35:56.976Z,7.40
2022-11-09T22:38:44.690Z,7.30
2022-11-09T22:41:32.503Z,7.30
2022-11-09T22:44:19.527Z,7.30
2022-11-09T22:47:06.519Z,7.40
2022-11-09T22:49:53.713Z,7.40
2022-11-09T22:52:40.813Z,7.40
2022-11-09T22:55:28.028Z,7.30
2022-11-09T22:58:15.002Z,7.40
2022-11-09T23:01:11.335Z,7.40
2022-11-09T23:03:58.836Z,7.30
2022-11-09T23:06:46.003Z,7.30
2022-11-09T23:09:33.400Z,7.30
2022-11-09T23:12:20.505Z,7.30
2022-11-09T23:15:13.491Z,7.30
2022-11-09T23:18:20.343Z,7.20
2022-11-09T23:21:10.458Z,7.30
2022-11-09T23:24:01.287Z,7.20
2022-11-09T23:26:48.566Z,7.10
2022-11-09T23:29:35.679Z,7.20
2022-11-09T23:32:22.905Z,7.20
2022-11-09T23:35:10.028Z,7.20
2022-11-09T23:37:59.701Z,7.20
2022-11-09T23:40:47.093Z,7.10
2022-11-09T23:43:35.434Z,7.20
2022-11-09T23:46:22.741Z,7.10
2022-11-09T23:49:09.710Z,7.20
2022-11-09T23:51:56.833Z,7.10
2022-11-09T23:54:45.652Z,7.10
2022-11-09T23:57:32.958Z,7.10
